Time;durP1;ratioP1;P1;durP2;ratioP2;P2;SDS_P1;SDS_P2;PMS_P1;PMS_P2;Temp;Humidity;BMP_temperature;BMP_pressure;BME280_temperature;BME280_humidity;BME280_pressure;Samples;Min_cycle;Max_cycle;Signal;HPM_P1;HPM_P2
2023/01/08 00:02:16;;;;;;;5.07;2.72;;;11.40;95.40;;;;;;5032752;28;20084;-76
2023/01/08 00:04:42;;;;;;;6.45;2.50;;;11.40;95.40;;;;;;5052413;28;20033;-75
2023/01/08 00:07:08;;;;;;;5.35;2.80;;;11.40;95.40;;;;;;5050329;28;20017;-75
2023/01/08 00:09:33;;;;;;;5.25;2.40;;;11.40;95.30;;;;;;5061211;28;20033;-75
2023/01/08 00:11:59;;;;;;;6.45;2.50;;;11.40;95.30;;;;;;5054868;28;20030;-75
2023/01/08 00:14:24;;;;;;;6.53;2.58;;;11.40;95.30;;;;;;5055499;28;20021;-75
2023/01/08 00:16:50;;;;;;;4.53;2.20;;;11.50;95.20;;;;;;5053248;28;20235;-76
2023/01/08 00:19:17;;;;;;;10.88;3.10;;;11.50;95.20;;;;;;5037014;28;20030;-75
2023/01/08 00:21:43;;;;;;;6.00;2.95;;;11.50;95.10;;;;;;5053724;28;20080;-75
2023/01/08 00:24:09;;;;;;;6.18;2.17;;;11.50;95.10;;;;;;5031300;28;20414;-75
2023/01/08 00:26:35;;;;;;;5.32;2.17;;;11.50;95.10;;;;;;5022347;28;20061;-76
2023/01/08 00:29:02;;;;;;;5.72;2.88;;;11.50;95.10;;;;;;5007336;28;20031;-75
2023/01/08 00:31:29;;;;;;;5.35;2.50;;;11.50;95.00;;;;;;5011856;28;20097;-75
2023/01/08 00:33:54;;;;;;;4.68;2.75;;;11.50;95.00;;;;;;5013350;28;20033;-76
2023/01/08 00:36:20;;;;;;;5.57;3.13;;;11.60;95.00;;;;;;5014365;28;20029;-76
2023/01/08 00:38:46;;;;;;;5.10;2.40;;;11.60;95.00;;;;;;5012585;28;20060;-75
2023/01/08 00:41:13;;;;;;;6.07;2.70;;;11.60;95.00;;;;;;5016192;28;20026;-75
2023/01/08 00:43:39;;;;;;;5.40;2.42;;;11.50;94.90;;;;;;5014936;28;20022;-75
2023/01/08 00:46:06;;;;;;;6.63;3.08;;;11.50;94.90;;;;;;5018112;28;20057;-76
2023/01/08 00:48:38;;;;;;;6.35;2.70;;;11.50;94.90;;;;;;5008360;28;20038;-76
2023/01/08 00:51:06;;;;;;;8.45;3.65;;;11.50;94.90;;;;;;5014536;28;20034;-75
2023/01/08 00:53:32;;;;;;;7.82;2.58;;;11.50;94.80;;;;;;5012920;28;20026;-77
2023/01/08 00:56:05;;;;;;;5.57;2.30;;;11.50;94.80;;;;;;5009590;28;20028;-76
2023/01/08 00:58:32;;;;;;;9.07;2.80;;;11.50;94.80;;;;;;5010062;28;20046;-75
2023/01/08 01:00:58;;;;;;;5.18;2.65;;;11.50;94.70;;;;;;5012446;28;20083;-76
2023/01/08 01:03:26;;;;;;;5.82;2.55;;;11.60;95.00;;;;;;5008579;28;20033;-75
2023/01/08 01:06:03;;;;;;;7.75;2.72;;;11.60;94.70;;;;;;5011373;28;20113;-76
2023/01/08 01:08:28;;;;;;;8.20;3.10;;;11.60;94.60;;;;;;5008910;28;20054;-76
2023/01/08 01:10:55;;;;;;;7.55;3.13;;;11.60;94.50;;;;;;5014939;28;20480;-74
2023/01/08 01:13:21;;;;;;;6.68;2.55;;;11.60;94.50;;;;;;5017314;28;20460;-76
2023/01/08 01:15:58;;;;;;;6.35;3.10;;;11.60;94.50;;;;;;5021686;28;20033;-74
2023/01/08 01:18:24;;;;;;;5.75;2.63;;;11.50;94.70;;;;;;5014949;28;20437;-75
2023/01/08 01:20:50;;;;;;;6.72;3.08;;;11.60;94.70;;;;;;5009651;28;20105;-75
2023/01/08 01:23:16;;;;;;;7.80;2.83;;;11.60;94.70;;;;;;5012727;28;20113;-75
2023/01/08 01:25:41;;;;;;;10.25;2.58;;;11.60;94.70;;;;;;5017603;28;20052;-74
2023/01/08 01:28:07;;;;;;;5.70;3.00;;;11.60;94.80;;;;;;5056978;28;20033;-75
2023/01/08 01:30:34;;;;;;;6.25;3.08;;;11.60;94.70;;;;;;5056788;28;20042;-75
2023/01/08 01:33:01;;;;;;;7.05;2.58;;;11.60;94.70;;;;;;5034360;28;20025;-76
2023/01/08 01:35:27;;;;;;;10.88;3.40;;;11.60;94.80;;;;;;5045228;28;20071;-75
2023/01/08 01:37:53;;;;;;;5.38;2.47;;;11.60;94.80;;;;;;5049851;28;20029;-76
2023/01/08 01:40:19;;;;;;;5.70;2.78;;;11.60;94.80;;;;;;5043914;28;20044;-74
2023/01/08 01:42:46;;;;;;;7.32;2.78;;;11.60;94.80;;;;;;5046708;28;20018;-76
2023/01/08 01:45:23;;;;;;;7.18;3.03;;;11.50;94.80;;;;;;5049582;28;20059;-76
2023/01/08 01:48:11;;;;;;;7.03;2.85;;;11.50;94.80;;;;;;5059370;28;20025;-76
2023/01/08 01:50:46;;;;;;;9.80;2.30;;;11.50;94.80;;;;;;5046199;28;20032;-75
2023/01/08 01:53:17;;;;;;;6.55;3.00;;;11.50;94.90;;;;;;5049874;28;20523;-75
2023/01/08 01:55:43;;;;;;;7.22;2.63;;;11.50;94.80;;;;;;5053452;28;20048;-74
2023/01/08 01:58:22;;;;;;;5.82;2.60;;;11.50;94.90;;;;;;5053113;28;20060;-76
2023/01/08 02:00:49;;;;;;;10.25;3.35;;;11.50;94.90;;;;;;5051560;28;20421;-75
2023/01/08 02:03:19;;;;;;;5.28;2.40;;;11.50;94.80;;;;;;5053238;28;20466;-74
2023/01/08 02:06:03;;;;;;;8.95;2.70;;;11.40;94.80;;;;;;5051869;28;20031;-75
2023/01/08 02:08:47;;;;;;;5.95;3.13;;;11.50;94.90;;;;;;5053141;28;20037;-74
2023/01/08 02:12:17;;;;;;;11.23;3.83;;;11.50;94.80;;;;;;5049852;28;20021;-75
2023/01/08 02:14:48;;;;;;;6.30;2.58;;;11.50;94.70;;;;;;4994465;28;20061;-75
2023/01/08 02:17:28;;;;;;;7.88;3.53;;;11.60;94.80;;;;;;4995203;28;20057;-75
2023/01/08 02:20:01;;;;;;;7.55;3.50;;;11.40;94.80;;;;;;5034522;28;20049;-75
2023/01/08 02:22:30;;;;;;;7.28;3.20;;;11.50;94.70;;;;;;5052658;28;20106;-76
2023/01/08 02:25:00;;;;;;;7.70;2.70;;;11.50;94.80;;;;;;5058289;28;20041;-75
2023/01/08 02:27:29;;;;;;;5.97;2.10;;;11.40;94.90;;;;;;5053246;28;20043;-76
2023/01/08 02:29:56;;;;;;;10.18;3.25;;;11.50;94.90;;;;;;5050992;28;20081;-75
2023/01/08 02:32:31;;;;;;;9.43;3.40;;;11.50;94.80;;;;;;5028550;28;20455;-76
2023/01/08 02:34:57;;;;;;;6.07;2.90;;;11.50;94.80;;;;;;5052955;28;20010;-75
2023/01/08 02:37:23;;;;;;;4.40;2.28;;;11.50;94.80;;;;;;5049225;28;20030;-75
2023/01/08 02:40:19;;;;;;;7.10;2.45;;;11.50;94.80;;;;;;5029761;28;20065;-75
2023/01/08 02:42:55;;;;;;;5.45;2.05;;;11.50;94.80;;;;;;5051030;28;20098;-75
2023/01/08 02:45:47;;;;;;;8.65;2.83;;;11.50;94.80;;;;;;5058542;28;20487;-76
2023/01/08 02:48:25;;;;;;;8.25;2.83;;;11.50;94.90;;;;;;5029292;28;20108;-76
2023/01/08 02:50:57;;;;;;;6.28;2.58;;;11.50;94.80;;;;;;5052567;28;20025;-75
2023/01/08 02:53:29;;;;;;;7.25;3.30;;;11.50;95.00;;;;;;5053460;28;20030;-74
2023/01/08 02:55:59;;;;;;;9.60;3.28;;;11.40;94.90;;;;;;5051236;28;20029;-75
2023/01/08 02:58:28;;;;;;;6.72;2.92;;;11.50;95.00;;;;;;5047900;28;20043;-76
2023/01/08 03:01:00;;;;;;;4.90;1.98;;;11.40;95.00;;;;;;5033830;28;20025;-75
2023/01/08 03:03:28;;;;;;;7.60;2.65;;;11.40;95.10;;;;;;5048626;28;20025;-76
2023/01/08 03:06:00;;;;;;;9.30;2.90;;;11.40;95.10;;;;;;5046887;28;20084;-75
2023/01/08 03:08:28;;;;;;;5.53;2.08;;;11.40;95.10;;;;;;5032996;28;20032;-77
2023/01/08 03:11:12;;;;;;;4.65;2.03;;;11.30;95.20;;;;;;5046885;28;20030;-76
2023/01/08 03:13:54;;;;;;;8.00;1.67;;;11.30;95.40;;;;;;5039101;28;20026;-76
2023/01/08 03:16:34;;;;;;;5.50;1.90;;;11.20;95.30;;;;;;5049589;28;20032;-75
2023/01/08 03:19:06;;;;;;;6.13;1.97;;;11.10;95.30;;;;;;5048249;28;20038;-75
2023/01/08 03:21:34;;;;;;;6.55;1.70;;;11.10;95.60;;;;;;5062141;28;20406;-75
2023/01/08 03:24:02;;;;;;;5.30;1.30;;;11.10;95.50;;;;;;5043589;28;20033;-75
2023/01/08 03:26:29;;;;;;;6.65;1.33;;;11.10;95.50;;;;;;5031084;28;20045;-75
2023/01/08 03:28:56;;;;;;;5.38;1.45;;;11.00;95.30;;;;;;5039082;28;21288;-77
2023/01/08 03:31:25;;;;;;;3.65;1.10;;;10.90;95.10;;;;;;5031840;28;20030;-76
2023/01/08 03:33:52;;;;;;;5.50;1.88;;;10.90;95.00;;;;;;5031344;28;20018;-75
2023/01/08 03:36:22;;;;;;;6.45;1.48;;;10.80;95.30;;;;;;5038593;28;20319;-75
2023/01/08 03:39:27;;;;;;;4.25;1.77;;;10.70;95.30;;;;;;5030789;28;20063;-76
2023/01/08 03:41:58;;;;;;;3.67;1.20;;;10.60;95.30;;;;;;5000808;28;20058;-76
2023/01/08 03:44:24;;;;;;;11.43;2.45;;;10.60;95.30;;;;;;5031112;28;20029;-75
2023/01/08 03:46:55;;;;;;;5.57;1.33;;;10.50;95.40;;;;;;5030595;28;20034;-76
2023/01/08 03:49:25;;;;;;;3.58;0.90;;;10.40;95.40;;;;;;5026528;28;20031;-76
2023/01/08 03:51:51;;;;;;;4.75;1.17;;;10.40;95.60;;;;;;5033484;28;20085;-76
2023/01/08 03:54:20;;;;;;;8.05;1.38;;;10.30;95.80;;;;;;5023595;28;20045;-75
2023/01/08 03:56:48;;;;;;;8.57;1.10;;;10.40;95.90;;;;;;5033596;28;20052;-76
2023/01/08 03:59:15;;;;;;;4.30;0.90;;;10.30;96.10;;;;;;5034448;28;20018;-76
2023/01/08 04:01:42;;;;;;;7.75;1.70;;;10.30;96.10;;;;;;5040002;28;20272;-76
2023/01/08 04:04:10;;;;;;;5.90;1.00;;;10.30;96.10;;;;;;5038589;28;20034;-75
2023/01/08 04:06:36;;;;;;;6.07;1.25;;;10.20;96.00;;;;;;5032523;28;20033;-76
2023/01/08 04:09:03;;;;;;;5.65;1.42;;;10.30;96.20;;;;;;5033884;28;20029;-75
2023/01/08 04:11:29;;;;;;;6.57;1.55;;;10.30;96.20;;;;;;5043367;28;20021;-75
2023/01/08 04:13:55;;;;;;;6.93;1.15;;;10.30;96.10;;;;;;5031690;28;21202;-74
2023/01/08 04:16:21;;;;;;;2.85;1.10;;;10.40;96.10;;;;;;5029490;28;20081;-75
2023/01/08 04:18:47;;;;;;;4.65;1.35;;;10.40;96.10;;;;;;5031463;28;20074;-75
2023/01/08 04:21:12;;;;;;;11.90;1.60;;;10.40;96.10;;;;;;5027180;28;20022;-75
2023/01/08 04:23:38;;;;;;;10.73;1.63;;;10.40;96.10;;;;;;5030623;28;20032;-76
2023/01/08 04:26:05;;;;;;;9.30;1.20;;;10.30;96.10;;;;;;5035742;28;20048;-76
2023/01/08 04:28:30;;;;;;;7.05;1.40;;;10.30;96.20;;;;;;5058557;28;20471;-75
2023/01/08 04:30:56;;;;;;;5.53;1.08;;;10.30;96.10;;;;;;5029037;28;20069;-76
2023/01/08 04:33:22;;;;;;;11.90;1.77;;;10.30;96.10;;;;;;5046464;28;20045;-75
2023/01/08 04:35:48;;;;;;;4.05;1.10;;;10.30;96.10;;;;;;5047760;28;20025;-75
2023/01/08 04:38:14;;;;;;;6.80;1.85;;;10.30;96.10;;;;;;5047156;28;20041;-75
2023/01/08 04:40:39;;;;;;;2.40;1.00;;;10.40;96.10;;;;;;5040775;28;20105;-76
2023/01/08 04:43:05;;;;;;;5.30;1.58;;;10.30;96.00;;;;;;5048132;28;20101;-76
2023/01/08 04:45:32;;;;;;;7.03;2.03;;;10.30;96.00;;;;;;5049309;28;20017;-76
2023/01/08 04:47:58;;;;;;;4.20;1.23;;;10.30;96.20;;;;;;5056918;28;20059;-76
2023/01/08 04:50:24;;;;;;;6.63;1.30;;;10.30;96.20;;;;;;5048019;28;20021;-76
2023/01/08 04:52:52;;;;;;;6.38;1.17;;;10.30;96.10;;;;;;5046103;28;20523;-75
2023/01/08 04:55:18;;;;;;;3.17;1.20;;;10.30;96.00;;;;;;5047485;28;20493;-75
2023/01/08 04:57:44;;;;;;;4.60;1.05;;;10.30;96.10;;;;;;5046093;28;20082;-76
2023/01/08 05:00:11;;;;;;;7.60;1.17;;;10.30;96.20;;;;;;5050725;28;20109;-75
2023/01/08 05:02:38;;;;;;;4.95;1.23;;;10.30;96.30;;;;;;5044055;28;20017;-77
2023/01/08 05:05:04;;;;;;;7.65;1.77;;;10.30;96.20;;;;;;5051599;28;20033;-77
2023/01/08 05:07:30;;;;;;;4.78;0.95;;;10.30;96.10;;;;;;5044970;28;20048;-75
2023/01/08 05:09:56;;;;;;;9.07;2.05;;;10.30;96.00;;;;;;5052275;28;20029;-75
2023/01/08 05:12:22;;;;;;;6.35;1.20;;;10.30;96.00;;;;;;5026800;28;20021;-75
2023/01/08 05:14:48;;;;;;;6.45;1.17;;;10.30;96.00;;;;;;5045008;28;20017;-77
2023/01/08 05:17:19;;;;;;;7.22;1.58;;;10.30;96.00;;;;;;5046955;28;20028;-75
2023/01/08 05:19:45;;;;;;;5.53;1.23;;;10.30;96.00;;;;;;5049906;28;20033;-74
2023/01/08 05:22:10;;;;;;;4.97;1.30;;;10.30;96.00;;;;;;5055668;28;20040;-76
2023/01/08 05:24:36;;;;;;;5.78;1.52;;;10.30;96.10;;;;;;5056134;28;20148;-75
2023/01/08 05:27:01;;;;;;;9.30;1.58;;;10.30;96.10;;;;;;5053560;28;20064;-76
2023/01/08 05:29:27;;;;;;;5.90;1.13;;;10.30;96.10;;;;;;5053624;28;20025;-76
2023/01/08 05:31:53;;;;;;;6.05;1.33;;;10.30;96.00;;;;;;5055532;28;20017;-76
2023/01/08 05:34:18;;;;;;;7.47;1.58;;;10.30;96.30;;;;;;5058720;28;20067;-76
2023/01/08 05:36:44;;;;;;;7.40;1.60;;;10.30;96.00;;;;;;5054309;28;20025;-76
2023/01/08 05:39:12;;;;;;;8.30;1.92;;;10.30;96.00;;;;;;5052669;28;20047;-77
2023/01/08 05:41:37;;;;;;;6.97;1.08;;;10.30;96.10;;;;;;5050313;28;20203;-75
2023/01/08 05:44:04;;;;;;;6.00;2.78;;;10.30;96.20;;;;;;5049255;28;20025;-75
2023/01/08 05:46:31;;;;;;;10.45;1.90;;;10.20;96.10;;;;;;5053703;28;20041;-76
2023/01/08 05:48:57;;;;;;;7.13;1.88;;;10.30;96.20;;;;;;5051221;28;20040;-76
2023/01/08 05:51:23;;;;;;;8.48;1.70;;;10.30;96.10;;;;;;5056031;28;20040;-75
2023/01/08 05:53:49;;;;;;;8.02;2.38;;;10.20;96.10;;;;;;5050402;28;20021;-75
2023/01/08 05:56:20;;;;;;;4.35;1.40;;;10.30;96.40;;;;;;5052629;28;20097;-76
2023/01/08 05:58:46;;;;;;;5.03;1.38;;;10.30;96.10;;;;;;5040209;28;20048;-76
2023/01/08 06:01:16;;;;;;;10.88;1.98;;;10.30;96.00;;;;;;5057327;28;20025;-76
2023/01/08 06:03:42;;;;;;;7.00;1.20;;;10.30;96.00;;;;;;5052876;28;20043;-77
2023/01/08 06:06:09;;;;;;;6.40;1.90;;;10.30;96.00;;;;;;5056004;28;20021;-76
2023/01/08 06:08:35;;;;;;;5.25;1.52;;;10.30;96.10;;;;;;5053257;28;20056;-76
2023/01/08 06:11:03;;;;;;;6.95;1.58;;;10.20;96.00;;;;;;5059927;28;20025;-76
2023/01/08 06:13:29;;;;;;;6.22;1.30;;;10.30;96.00;;;;;;5059298;28;20177;-76
2023/01/08 06:15:56;;;;;;;6.18;1.70;;;10.30;95.90;;;;;;5050901;28;20038;-76
2023/01/08 06:18:22;;;;;;;8.35;1.80;;;10.30;95.80;;;;;;5049321;28;20033;-76
2023/01/08 06:20:47;;;;;;;4.95;1.50;;;10.20;95.60;;;;;;5050590;28;20033;-76
2023/01/08 06:23:13;;;;;;;4.60;1.83;;;10.20;95.60;;;;;;5047189;28;20041;-75
2023/01/08 06:25:39;;;;;;;4.65;1.40;;;10.20;95.50;;;;;;5037711;28;20021;-76
2023/01/08 06:28:04;;;;;;;7.20;1.73;;;10.20;95.60;;;;;;5052607;28;20032;-76
2023/01/08 06:30:31;;;;;;;5.00;1.33;;;10.20;95.50;;;;;;5051139;28;20029;-77
2023/01/08 06:32:58;;;;;;;5.47;1.35;;;10.20;95.40;;;;;;5056071;28;21194;-77
2023/01/08 06:35:25;;;;;;;4.90;1.20;;;10.20;95.30;;;;;;5051152;28;20056;-76
2023/01/08 06:37:54;;;;;;;6.43;1.40;;;10.20;95.30;;;;;;5057523;28;20088;-77
2023/01/08 06:40:20;;;;;;;5.55;1.30;;;10.20;95.20;;;;;;5049482;28;20022;-77
2023/01/08 06:42:46;;;;;;;4.57;1.27;;;10.20;95.30;;;;;;5053267;28;20072;-76
2023/01/08 06:45:12;;;;;;;7.22;1.60;;;10.10;95.00;;;;;;5039854;28;20025;-76
2023/01/08 06:47:37;;;;;;;4.85;1.25;;;10.10;95.00;;;;;;5055388;28;20027;-76
2023/01/08 06:50:05;;;;;;;6.20;1.58;;;10.10;95.00;;;;;;5052400;28;20443;-76
2023/01/08 06:52:30;;;;;;;5.30;1.35;;;10.00;95.00;;;;;;5053293;28;20081;-76
2023/01/08 06:54:56;;;;;;;7.00;1.00;;;10.00;94.70;;;;;;5031931;28;20068;-75
2023/01/08 06:57:23;;;;;;;5.88;1.48;;;9.90;94.70;;;;;;5051362;28;20078;-75
2023/01/08 06:59:50;;;;;;;6.22;1.08;;;10.00;94.70;;;;;;5049864;28;20027;-75
2023/01/08 07:02:17;;;;;;;3.90;0.93;;;9.90;95.00;;;;;;5056643;28;20021;-75
2023/01/08 07:04:44;;;;;;;5.10;1.20;;;9.80;94.90;;;;;;5045896;28;20028;-75
2023/01/08 07:07:13;;;;;;;4.80;1.35;;;9.80;95.00;;;;;;5051171;28;20045;-76
2023/01/08 07:09:41;;;;;;;9.95;1.65;;;9.80;95.20;;;;;;5053487;28;20124;-76
2023/01/08 07:12:13;;;;;;;8.80;1.80;;;9.70;95.00;;;;;;5047111;28;20037;-75
2023/01/08 07:14:40;;;;;;;5.38;1.20;;;9.70;95.20;;;;;;5047597;28;20026;-78
2023/01/08 07:17:06;;;;;;;4.60;1.25;;;9.70;95.50;;;;;;5036823;28;20419;-77
2023/01/08 07:19:32;;;;;;;9.60;2.28;;;9.60;95.00;;;;;;5046366;28;20037;-76
2023/01/08 07:21:57;;;;;;;10.00;1.42;;;9.70;96.50;;;;;;5047364;28;20036;-75
2023/01/08 07:24:23;;;;;;;6.97;1.77;;;9.70;97.00;;;;;;5051138;28;20041;-77
2023/01/08 07:26:48;;;;;;;7.32;1.27;;;9.80;97.40;;;;;;5049629;28;20120;-79
2023/01/08 07:29:14;;;;;;;11.20;1.52;;;9.70;96.80;;;;;;5062549;28;20044;-80
2023/01/08 07:31:42;;;;;;;9.00;1.60;;;9.70;97.10;;;;;;5056951;28;20018;-79
2023/01/08 07:34:07;;;;;;;8.90;1.52;;;9.70;97.10;;;;;;5052141;28;20029;-79
2023/01/08 07:36:33;;;;;;;9.05;1.80;;;9.80;96.60;;;;;;5057294;28;20125;-77
2023/01/08 07:39:00;;;;;;;7.65;1.75;;;9.60;95.10;;;;;;5057213;28;20517;-79
2023/01/08 07:41:25;;;;;;;8.57;2.25;;;9.60;94.30;;;;;;5051178;28;20021;-78
2023/01/08 07:43:51;;;;;;;6.72;1.60;;;9.50;94.10;;;;;;5057054;28;20088;-78
2023/01/08 07:46:17;;;;;;;6.40;1.70;;;9.50;94.20;;;;;;5051563;28;20034;-79
2023/01/08 07:48:42;;;;;;;7.45;1.25;;;9.40;93.90;;;;;;5051029;28;20115;-79
2023/01/08 07:51:09;;;;;;;8.57;1.80;;;9.40;93.90;;;;;;5058793;28;20014;-79
2023/01/08 07:53:36;;;;;;;5.95;1.60;;;9.40;93.90;;;;;;5049860;28;20032;-79
2023/01/08 07:56:09;;;;;;;7.78;1.50;;;9.40;95.00;;;;;;5045832;28;20037;-78
2023/01/08 07:58:36;;;;;;;7.53;1.38;;;9.50;96.70;;;;;;5048630;28;20057;-79
2023/01/08 08:01:03;;;;;;;9.73;1.95;;;9.60;97.10;;;;;;5050337;28;20040;-78
2023/01/08 08:03:29;;;;;;;6.35;1.83;;;9.50;96.20;;;;;;5051322;28;20040;-78
2023/01/08 08:05:58;;;;;;;12.32;2.47;;;9.40;94.70;;;;;;5054018;28;20164;-79
2023/01/08 08:08:24;;;;;;;10.85;2.53;;;9.40;94.10;;;;;;5052208;28;20031;-78
2023/01/08 08:10:50;;;;;;;7.43;2.13;;;9.30;93.80;;;;;;5056094;28;20021;-79
2023/01/08 08:13:16;;;;;;;11.73;2.38;;;9.30;93.60;;;;;;5057354;28;20037;-78
2023/01/08 08:15:41;;;;;;;10.45;2.15;;;9.30;93.50;;;;;;5053312;28;20052;-79
2023/01/08 08:18:08;;;;;;;8.80;2.05;;;9.30;93.60;;;;;;5049575;28;20033;-77
2023/01/08 08:20:40;;;;;;;11.10;1.60;;;9.30;93.50;;;;;;5056367;28;20040;-78
2023/01/08 08:23:12;;;;;;;7.75;2.05;;;9.30;93.30;;;;;;5055683;28;20044;-78
2023/01/08 08:25:39;;;;;;;10.45;1.80;;;9.30;93.40;;;;;;5058132;28;20029;-78
2023/01/08 08:28:06;;;;;;;10.73;2.58;;;9.30;93.30;;;;;;5053875;28;20020;-79
2023/01/08 08:30:34;;;;;;;8.05;2.13;;;9.30;93.10;;;;;;5038905;28;20017;-79
2023/01/08 08:33:02;;;;;;;8.70;1.70;;;9.30;92.90;;;;;;5051967;28;20033;-79
2023/01/08 08:35:29;;;;;;;14.60;2.13;;;9.30;92.80;;;;;;5052745;28;20036;-80
2023/01/08 08:37:55;;;;;;;11.40;2.47;;;9.30;92.70;;;;;;5059137;28;20041;-78
2023/01/08 08:40:23;;;;;;;12.13;1.80;;;9.30;92.30;;;;;;5057204;28;20907;-77
2023/01/08 08:42:53;;;;;;;9.82;2.35;;;9.50;92.80;;;;;;5034537;28;20021;-79
2023/01/08 08:45:19;;;;;;;8.73;2.05;;;9.90;92.40;;;;;;5048787;28;20372;-78
2023/01/08 08:47:46;;;;;;;18.23;2.72;;;10.20;90.80;;;;;;5046128;28;20018;-78
2023/01/08 08:50:11;;;;;;;10.32;2.00;;;10.50;90.00;;;;;;5036748;28;20035;-78
2023/01/08 08:52:37;;;;;;;5.40;1.65;;;10.80;89.60;;;;;;5058700;28;20068;-78
2023/01/08 08:55:03;;;;;;;7.85;1.80;;;11.10;88.20;;;;;;5057828;28;20055;-79
2023/01/08 08:57:28;;;;;;;8.95;1.90;;;11.30;86.60;;;;;;5065411;28;20079;-78
2023/01/08 08:59:56;;;;;;;12.45;2.88;;;11.50;87.80;;;;;;5056015;28;20067;-78
2023/01/08 09:02:23;;;;;;;7.40;1.42;;;11.60;85.50;;;;;;5059991;28;20069;-79
2023/01/08 09:04:50;;;;;;;6.88;1.67;;;11.60;86.70;;;;;;5058637;28;20025;-81
2023/01/08 09:07:16;;;;;;;7.30;2.22;;;11.40;88.60;;;;;;5056322;28;20989;-79
2023/01/08 09:09:43;;;;;;;8.00;1.95;;;11.40;89.40;;;;;;5055158;28;20025;-79
2023/01/08 09:12:09;;;;;;;8.25;1.88;;;11.50;87.00;;;;;;5062045;28;20029;-79
2023/01/08 09:14:35;;;;;;;7.47;1.92;;;11.90;88.90;;;;;;5052622;28;20017;-79
2023/01/08 09:17:01;;;;;;;8.85;1.85;;;12.10;86.50;;;;;;5060548;28;20178;-78
2023/01/08 09:19:26;;;;;;;7.63;2.30;;;12.30;83.30;;;;;;5051337;28;20068;-80
2023/01/08 09:21:53;;;;;;;9.10;2.17;;;12.70;82.60;;;;;;5053589;28;20083;-81
2023/01/08 09:24:19;;;;;;;11.90;2.30;;;12.90;82.90;;;;;;5045973;28;20026;-80
2023/01/08 09:26:44;;;;;;;8.45;1.83;;;12.80;81.60;;;;;;5052323;28;20079;-79
2023/01/08 09:29:11;;;;;;;9.70;1.55;;;12.80;82.20;;;;;;5050154;28;20535;-79
2023/01/08 09:31:37;;;;;;;9.98;2.10;;;12.90;84.50;;;;;;5050612;28;20388;-80
2023/01/08 09:34:02;;;;;;;8.68;1.85;;;12.80;82.80;;;;;;5055275;28;20017;-78
2023/01/08 09:36:29;;;;;;;8.65;1.85;;;12.70;83.70;;;;;;5049094;28;20041;-80
2023/01/08 09:38:54;;;;;;;7.63;1.45;;;12.60;85.10;;;;;;5051985;28;20033;-79
2023/01/08 09:41:35;;;;;;;7.43;2.00;;;12.60;87.30;;;;;;5047368;28;20518;-78
2023/01/08 09:44:05;;;;;;;12.52;1.92;;;12.80;85.00;;;;;;5045035;28;20036;-78
2023/01/08 09:46:31;;;;;;;11.48;2.25;;;13.10;83.80;;;;;;5046370;28;20427;-79
2023/01/08 09:49:11;;;;;;;5.18;1.33;;;13.30;81.50;;;;;;5053617;28;20040;-82
2023/01/08 09:51:38;;;;;;;12.80;2.15;;;13.30;82.20;;;;;;5048096;28;20135;-80
2023/01/08 09:54:06;;;;;;;9.40;2.25;;;13.10;82.80;;;;;;5053220;28;20038;-78
2023/01/08 09:56:34;;;;;;;9.20;2.63;;;12.90;83.00;;;;;;5056449;28;20018;-79
2023/01/08 09:59:03;;;;;;;10.63;2.58;;;12.60;83.60;;;;;;5057490;28;20123;-79
2023/01/08 10:01:34;;;;;;;10.35;2.55;;;12.40;85.40;;;;;;5049623;28;20032;-79
2023/01/08 10:04:22;;;;;;;17.15;2.58;;;12.30;87.90;;;;;;5049452;28;20466;-79
2023/01/08 10:07:00;;;;;;;15.85;2.58;;;12.30;88.40;;;;;;5040773;28;20022;-80
2023/01/08 10:09:33;;;;;;;9.05;1.63;;;12.20;88.50;;;;;;5058169;28;20069;-79
2023/01/08 10:12:03;;;;;;;9.63;1.75;;;11.80;90.30;;;;;;5053962;28;20036;-80
2023/01/08 10:14:36;;;;;;;11.60;2.38;;;11.60;90.20;;;;;;5052940;28;20018;-80
2023/01/08 10:17:33;;;;;;;11.00;2.10;;;11.60;90.00;;;;;;5049107;28;20029;-80
2023/01/08 10:19:58;;;;;;;7.60;1.60;;;12.20;89.70;;;;;;5049143;28;20029;-79
2023/01/08 10:22:32;;;;;;;7.45;2.28;;;12.70;88.90;;;;;;5051755;28;20106;-80
2023/01/08 10:25:11;;;;;;;11.25;2.20;;;13.10;85.90;;;;;;5052714;28;20037;-79
2023/01/08 10:28:05;;;;;;;7.28;1.58;;;13.50;84.80;;;;;;5048495;28;20080;-80
2023/01/08 10:30:37;;;;;;;8.60;2.00;;;13.80;81.30;;;;;;5052147;28;20768;-80
2023/01/08 10:33:28;;;;;;;6.43;1.38;;;14.00;81.30;;;;;;5033651;28;20060;-80
2023/01/08 10:36:01;;;;;;;10.00;2.15;;;14.20;82.10;;;;;;5055822;28;20052;-79
2023/01/08 10:38:36;;;;;;;10.20;1.75;;;14.20;82.70;;;;;;5046802;28;20037;-81
2023/01/08 10:41:12;;;;;;;9.00;1.67;;;14.30;81.50;;;;;;5048820;28;20037;-79
2023/01/08 10:44:02;;;;;;;8.52;1.88;;;14.40;80.20;;;;;;5049418;28;20096;-79
2023/01/08 10:46:35;;;;;;;4.40;1.40;;;14.70;77.60;;;;;;5054463;28;20017;-77
2023/01/08 10:49:04;;;;;;;8.18;1.80;;;14.80;81.30;;;;;;5050237;28;20451;-79
2023/01/08 10:51:31;;;;;;;7.35;1.80;;;14.80;80.50;;;;;;5050925;28;20028;-80
2023/01/08 10:54:23;;;;;;;9.32;1.38;;;14.80;78.70;;;;;;5047873;28;20029;-79
2023/01/08 10:56:54;;;;;;;8.20;1.52;;;15.10;79.80;;;;;;5050221;28;20475;-79
2023/01/08 10:59:22;;;;;;;6.00;2.15;;;15.40;79.70;;;;;;5045225;28;20049;-80
2023/01/08 11:01:51;;;;;;;5.90;1.58;;;15.30;77.00;;;;;;5045333;28;20090;-79
2023/01/08 11:04:24;;;;;;;11.30;3.08;;;15.30;76.20;;;;;;5035458;28;20052;-78
2023/01/08 11:06:50;;;;;;;5.70;1.65;;;15.40;76.40;;;;;;5026228;28;20037;-79
2023/01/08 11:09:24;;;;;;;6.75;1.90;;;15.30;74.50;;;;;;5042912;28;20029;-79
2023/01/08 11:11:50;;;;;;;7.50;1.90;;;15.70;80.20;;;;;;5053273;28;20034;-79
2023/01/08 11:14:25;;;;;;;7.97;2.28;;;16.00;84.30;;;;;;5035538;28;20040;-79
2023/01/08 11:16:53;;;;;;;6.78;1.83;;;15.60;77.00;;;;;;5039202;28;20060;-79
2023/01/08 11:19:26;;;;;;;7.63;1.58;;;15.30;76.00;;;;;;5045744;28;21001;-78
2023/01/08 11:22:07;;;;;;;5.10;1.45;;;15.60;83.10;;;;;;5040281;28;20079;-80
2023/01/08 11:24:37;;;;;;;8.57;2.10;;;15.80;80.80;;;;;;5027610;28;20053;-80
2023/01/08 11:27:33;;;;;;;8.73;2.33;;;16.10;76.60;;;;;;5045439;28;20124;-80
2023/01/08 11:30:19;;;;;;;7.93;1.98;;;16.30;76.30;;;;;;5041480;28;20033;-80
2023/01/08 11:33:08;;;;;;;6.53;1.50;;;16.30;72.10;;;;;;5046074;28;20028;-81
2023/01/08 11:35:43;;;;;;;5.70;1.35;;;16.20;73.50;;;;;;5045035;28;20143;-80
2023/01/08 11:38:11;;;;;;;11.52;2.72;;;16.40;77.10;;;;;;5049189;28;20067;-80
2023/01/08 11:41:10;;;;;;;4.38;1.15;;;16.40;74.90;;;;;;5039753;28;20030;-80
2023/01/08 11:44:12;;;;;;;7.28;2.03;;;15.90;77.00;;;;;;5045575;28;20021;-79
2023/01/08 11:47:05;;;;;;;8.30;1.65;;;15.60;82.00;;;;;;5048228;28;20028;-79
2023/01/08 11:49:51;;;;;;;6.90;2.03;;;15.30;79.40;;;;;;5047720;28;20055;-80
2023/01/08 11:52:40;;;;;;;7.93;1.75;;;15.30;79.40;;;;;;5045510;28;20025;-79
2023/01/08 11:55:25;;;;;;;5.63;1.38;;;15.30;75.90;;;;;;5042970;28;20169;-80
2023/01/08 11:58:11;;;;;;;6.85;1.40;;;15.70;75.90;;;;;;5044725;28;20037;-80
2023/01/08 12:00:54;;;;;;;5.22;1.40;;;16.00;77.50;;;;;;5044365;28;20033;-80
2023/01/08 12:03:35;;;;;;;3.92;1.27;;;16.10;75.60;;;;;;5026961;28;20242;-79
2023/01/08 12:06:31;;;;;;;5.90;1.58;;;16.40;74.20;;;;;;5023985;28;20036;-80
2023/01/08 12:09:09;;;;;;;6.65;1.23;;;16.70;77.90;;;;;;5020638;28;20033;-80
2023/01/08 12:11:52;;;;;;;8.20;2.30;;;16.60;68.50;;;;;;5038787;28;20032;-79
2023/01/08 12:14:40;;;;;;;4.72;1.20;;;16.70;73.40;;;;;;5046699;28;20021;-79
2023/01/08 12:17:19;;;;;;;4.57;1.05;;;16.80;75.20;;;;;;5044801;28;21184;-79
2023/01/08 12:20:05;;;;;;;3.90;1.33;;;16.80;74.00;;;;;;5042213;28;20029;-80
2023/01/08 12:22:57;;;;;;;3.95;1.50;;;16.90;73.60;;;;;;5041979;28;20020;-80
2023/01/08 12:25:31;;;;;;;4.30;1.20;;;17.10;72.50;;;;;;5042522;28;20035;-79
2023/01/08 12:28:34;;;;;;;2.83;0.68;;;17.10;67.30;;;;;;5040880;28;20029;-81
2023/01/08 12:31:50;;;;;;;3.88;1.13;;;17.30;72.00;;;;;;5027265;28;20029;-79
2023/01/08 12:34:37;;;;;;;5.43;1.30;;;17.30;68.00;;;;;;5040238;28;20021;-81
2023/01/08 12:37:18;;;;;;;3.05;0.70;;;17.30;72.60;;;;;;5038448;28;20068;-78
2023/01/08 12:39:50;;;;;;;3.63;0.75;;;17.00;73.20;;;;;;5031233;28;20132;-81
2023/01/08 12:42:24;;;;;;;3.63;0.70;;;16.80;71.60;;;;;;5044384;28;20024;-80
2023/01/08 12:44:53;;;;;;;3.67;0.95;;;16.80;80.00;;;;;;5032240;28;20043;-81
2023/01/08 12:47:24;;;;;;;2.70;0.70;;;16.30;69.30;;;;;;5042292;28;20075;-80
2023/01/08 12:50:09;;;;;;;4.28;1.00;;;16.00;74.30;;;;;;5046241;28;20031;-81
2023/01/08 12:53:11;;;;;;;3.22;0.80;;;15.50;74.90;;;;;;5040664;28;20021;-81
2023/01/08 12:56:08;;;;;;;5.47;0.82;;;15.20;84.70;;;;;;5049123;28;20040;-80
2023/01/08 12:58:54;;;;;;;2.42;0.80;;;14.90;84.70;;;;;;5040816;28;20037;-79
2023/01/08 13:01:41;;;;;;;2.00;0.63;;;14.80;89.50;;;;;;5012951;28;20061;-80
2023/01/08 13:04:09;;;;;;;2.03;0.70;;;14.80;88.40;;;;;;5045938;28;20033;-80
2023/01/08 13:06:35;;;;;;;2.38;1.15;;;14.90;87.60;;;;;;5048856;28;20025;-79
2023/01/08 13:09:01;;;;;;;4.50;1.08;;;15.30;95.50;;;;;;5036545;28;20120;-80